sensor_id;sensor_type;location;lat;lon;timestamp;P1;durP1;ratioP1;P2;durP2;ratioP2
21089;SDS011;10703;51.020;6.128;2023-04-06T00:00:33;34.30;;;21.30;;
21089;SDS011;10703;51.020;6.128;2023-04-06T00:02:59;33.27;;;21.33;;
21089;SDS011;10703;51.020;6.128;2023-04-06T00:05:26;33.83;;;21.57;;
21089;SDS011;10703;51.020;6.128;2023-04-06T00:07:53;33.30;;;22.23;;
21089;SDS011;10703;51.020;6.128;2023-04-06T00:10:21;32.97;;;21.40;;
21089;SDS011;10703;51.020;6.128;2023-04-06T00:12:48;33.23;;;21.10;;
21089;SDS011;10703;51.020;6.128;2023-04-06T00:15:15;36.53;;;22.60;;
21089;SDS011;10703;51.020;6.128;2023-04-06T00:17:41;31.93;;;22.17;;
21089;SDS011;10703;51.020;6.128;2023-04-06T00:20:08;40.50;;;22.80;;
21089;SDS011;10703;51.020;6.128;2023-04-06T00:22:38;38.83;;;23.33;;
21089;SDS011;10703;51.020;6.128;2023-04-06T00:25:05;35.20;;;22.10;;
21089;SDS011;10703;51.020;6.128;2023-04-06T00:27:32;33.50;;;20.70;;
21089;SDS011;10703;51.020;6.128;2023-04-06T00:29:58;37.33;;;21.10;;
21089;SDS011;10703;51.020;6.128;2023-04-06T00:32:25;31.40;;;21.13;;
21089;SDS011;10703;51.020;6.128;2023-04-06T00:34:52;28.50;;;20.13;;
21089;SDS011;10703;51.020;6.128;2023-04-06T00:37:18;32.40;;;20.97;;
21089;SDS011;10703;51.020;6.128;2023-04-06T00:39:45;33.93;;;21.17;;
21089;SDS011;10703;51.020;6.128;2023-04-06T00:42:12;35.00;;;22.77;;
21089;SDS011;10703;51.020;6.128;2023-04-06T00:44:42;32.00;;;22.30;;
21089;SDS011;10703;51.020;6.128;2023-04-06T00:47:09;31.80;;;22.90;;
21089;SDS011;10703;51.020;6.128;2023-04-06T00:49:36;32.40;;;22.13;;
21089;SDS011;10703;51.020;6.128;2023-04-06T00:52:02;31.33;;;20.63;;
21089;SDS011;10703;51.020;6.128;2023-04-06T00:54:29;32.50;;;22.33;;
21089;SDS011;10703;51.020;6.128;2023-04-06T00:56:56;34.70;;;21.63;;
21089;SDS011;10703;51.020;6.128;2023-04-06T00:59:23;32.87;;;21.47;;
21089;SDS011;10703;51.020;6.128;2023-04-06T01:01:50;33.60;;;22.77;;
21089;SDS011;10703;51.020;6.128;2023-04-06T01:04:17;36.60;;;22.77;;
21089;SDS011;10703;51.020;6.128;2023-04-06T01:06:43;33.00;;;21.43;;
21089;SDS011;10703;51.020;6.128;2023-04-06T01:09:11;31.03;;;21.77;;
21089;SDS011;10703;51.020;6.128;2023-04-06T01:11:37;31.23;;;22.07;;
21089;SDS011;10703;51.020;6.128;2023-04-06T01:14:04;31.80;;;22.23;;
21089;SDS011;10703;51.020;6.128;2023-04-06T01:16:31;30.73;;;22.37;;
21089;SDS011;10703;51.020;6.128;2023-04-06T01:18:58;42.13;;;21.60;;
21089;SDS011;10703;51.020;6.128;2023-04-06T01:21:25;30.60;;;21.30;;
21089;SDS011;10703;51.020;6.128;2023-04-06T01:23:51;29.07;;;20.57;;
21089;SDS011;10703;51.020;6.128;2023-04-06T01:26:18;31.23;;;21.63;;
21089;SDS011;10703;51.020;6.128;2023-04-06T01:28:45;29.80;;;21.33;;
21089;SDS011;10703;51.020;6.128;2023-04-06T01:31:11;31.23;;;22.20;;
21089;SDS011;10703;51.020;6.128;2023-04-06T01:33:38;27.93;;;20.20;;
21089;SDS011;10703;51.020;6.128;2023-04-06T01:36:04;29.90;;;21.27;;
21089;SDS011;10703;51.020;6.128;2023-04-06T01:38:31;28.93;;;20.30;;
21089;SDS011;10703;51.020;6.128;2023-04-06T01:40:58;30.80;;;19.70;;
21089;SDS011;10703;51.020;6.128;2023-04-06T01:43:24;26.07;;;18.60;;
21089;SDS011;10703;51.020;6.128;2023-04-06T01:45:51;31.60;;;19.97;;
21089;SDS011;10703;51.020;6.128;2023-04-06T01:48:18;26.63;;;19.13;;
21089;SDS011;10703;51.020;6.128;2023-04-06T01:50:45;28.33;;;19.43;;
21089;SDS011;10703;51.020;6.128;2023-04-06T01:53:11;27.50;;;19.40;;
21089;SDS011;10703;51.020;6.128;2023-04-06T01:55:38;26.00;;;18.93;;
21089;SDS011;10703;51.020;6.128;2023-04-06T01:58:05;27.53;;;19.90;;
21089;SDS011;10703;51.020;6.128;2023-04-06T02:00:31;28.23;;;18.67;;
21089;SDS011;10703;51.020;6.128;2023-04-06T02:02:58;26.67;;;18.80;;
21089;SDS011;10703;51.020;6.128;2023-04-06T02:05:25;27.57;;;19.07;;
21089;SDS011;10703;51.020;6.128;2023-04-06T02:07:52;29.70;;;19.73;;
21089;SDS011;10703;51.020;6.128;2023-04-06T02:10:19;27.23;;;19.30;;
21089;SDS011;10703;51.020;6.128;2023-04-06T02:12:45;24.70;;;18.93;;
21089;SDS011;10703;51.020;6.128;2023-04-06T02:15:12;27.43;;;19.13;;
21089;SDS011;10703;51.020;6.128;2023-04-06T02:17:39;28.13;;;18.77;;
21089;SDS011;10703;51.020;6.128;2023-04-06T02:20:06;29.37;;;18.73;;
21089;SDS011;10703;51.020;6.128;2023-04-06T02:22:37;24.77;;;18.73;;
21089;SDS011;10703;51.020;6.128;2023-04-06T02:25:03;24.20;;;19.10;;
21089;SDS011;10703;51.020;6.128;2023-04-06T02:27:30;25.80;;;18.17;;
21089;SDS011;10703;51.020;6.128;2023-04-06T02:29:57;24.60;;;17.37;;
21089;SDS011;10703;51.020;6.128;2023-04-06T02:32:24;28.97;;;18.30;;
21089;SDS011;10703;51.020;6.128;2023-04-06T02:34:51;23.13;;;18.40;;
21089;SDS011;10703;51.020;6.128;2023-04-06T02:37:18;23.43;;;18.17;;
21089;SDS011;10703;51.020;6.128;2023-04-06T02:39:44;28.30;;;19.97;;
21089;SDS011;10703;51.020;6.128;2023-04-06T02:42:11;24.13;;;19.00;;
21089;SDS011;10703;51.020;6.128;2023-04-06T02:44:38;23.27;;;18.33;;
21089;SDS011;10703;51.020;6.128;2023-04-06T02:47:04;23.80;;;17.27;;
21089;SDS011;10703;51.020;6.128;2023-04-06T02:49:31;22.57;;;18.03;;
21089;SDS011;10703;51.020;6.128;2023-04-06T02:51:57;28.93;;;20.20;;
21089;SDS011;10703;51.020;6.128;2023-04-06T02:54:24;26.53;;;19.13;;
21089;SDS011;10703;51.020;6.128;2023-04-06T02:56:51;27.27;;;19.33;;
21089;SDS011;10703;51.020;6.128;2023-04-06T02:59:17;28.43;;;17.87;;
21089;SDS011;10703;51.020;6.128;2023-04-06T03:01:44;25.93;;;19.00;;
21089;SDS011;10703;51.020;6.128;2023-04-06T03:04:11;26.97;;;18.00;;
21089;SDS011;10703;51.020;6.128;2023-04-06T03:06:38;25.53;;;18.33;;
21089;SDS011;10703;51.020;6.128;2023-04-06T03:09:05;25.57;;;19.43;;
21089;SDS011;10703;51.020;6.128;2023-04-06T03:11:33;29.33;;;20.07;;
21089;SDS011;10703;51.020;6.128;2023-04-06T03:13:59;26.77;;;19.87;;
21089;SDS011;10703;51.020;6.128;2023-04-06T03:16:26;27.73;;;20.43;;
21089;SDS011;10703;51.020;6.128;2023-04-06T03:18:52;28.53;;;21.20;;
21089;SDS011;10703;51.020;6.128;2023-04-06T03:21:19;29.70;;;20.23;;
21089;SDS011;10703;51.020;6.128;2023-04-06T03:23:46;31.47;;;20.70;;
21089;SDS011;10703;51.020;6.128;2023-04-06T03:26:12;26.80;;;21.47;;
21089;SDS011;10703;51.020;6.128;2023-04-06T03:28:39;28.10;;;20.53;;
21089;SDS011;10703;51.020;6.128;2023-04-06T03:31:06;27.77;;;19.33;;
21089;SDS011;10703;51.020;6.128;2023-04-06T03:33:33;34.27;;;21.50;;
21089;SDS011;10703;51.020;6.128;2023-04-06T03:35:59;29.23;;;19.73;;
21089;SDS011;10703;51.020;6.128;2023-04-06T03:38:26;27.50;;;19.60;;
21089;SDS011;10703;51.020;6.128;2023-04-06T03:40:52;28.00;;;19.70;;
21089;SDS011;10703;51.020;6.128;2023-04-06T03:43:19;31.20;;;19.43;;
21089;SDS011;10703;51.020;6.128;2023-04-06T03:45:46;27.67;;;19.13;;
21089;SDS011;10703;51.020;6.128;2023-04-06T03:48:12;27.73;;;19.83;;
21089;SDS011;10703;51.020;6.128;2023-04-06T03:50:39;29.87;;;20.13;;
21089;SDS011;10703;51.020;6.128;2023-04-06T03:53:05;26.73;;;19.70;;
21089;SDS011;10703;51.020;6.128;2023-04-06T03:55:32;29.97;;;21.00;;
21089;SDS011;10703;51.020;6.128;2023-04-06T03:57:58;32.73;;;19.80;;
21089;SDS011;10703;51.020;6.128;2023-04-06T04:00:25;28.43;;;20.63;;
21089;SDS011;10703;51.020;6.128;2023-04-06T04:02:52;31.07;;;20.27;;
21089;SDS011;10703;51.020;6.128;2023-04-06T04:05:19;27.90;;;20.37;;
21089;SDS011;10703;51.020;6.128;2023-04-06T04:07:51;24.37;;;18.90;;
21089;SDS011;10703;51.020;6.128;2023-04-06T04:10:18;30.17;;;20.50;;
21089;SDS011;10703;51.020;6.128;2023-04-06T04:12:44;29.47;;;20.27;;
21089;SDS011;10703;51.020;6.128;2023-04-06T04:15:11;30.43;;;20.87;;
21089;SDS011;10703;51.020;6.128;2023-04-06T04:17:38;27.77;;;19.93;;
21089;SDS011;10703;51.020;6.128;2023-04-06T04:20:04;27.47;;;20.63;;
21089;SDS011;10703;51.020;6.128;2023-04-06T04:22:31;30.83;;;20.60;;
21089;SDS011;10703;51.020;6.128;2023-04-06T04:24:58;27.87;;;20.03;;
21089;SDS011;10703;51.020;6.128;2023-04-06T04:27:25;29.47;;;20.80;;
21089;SDS011;10703;51.020;6.128;2023-04-06T04:29:52;33.70;;;20.07;;
21089;SDS011;10703;51.020;6.128;2023-04-06T04:32:18;28.90;;;20.10;;
21089;SDS011;10703;51.020;6.128;2023-04-06T04:34:46;26.93;;;20.17;;
21089;SDS011;10703;51.020;6.128;2023-04-06T04:37:13;27.70;;;18.40;;
21089;SDS011;10703;51.020;6.128;2023-04-06T04:39:39;29.07;;;20.30;;
21089;SDS011;10703;51.020;6.128;2023-04-06T04:42:06;26.80;;;19.77;;
21089;SDS011;10703;51.020;6.128;2023-04-06T04:44:33;24.40;;;19.20;;
21089;SDS011;10703;51.020;6.128;2023-04-06T04:47:00;27.63;;;19.07;;
21089;SDS011;10703;51.020;6.128;2023-04-06T04:49:26;27.33;;;19.70;;
21089;SDS011;10703;51.020;6.128;2023-04-06T04:51:53;27.00;;;19.70;;
21089;SDS011;10703;51.020;6.128;2023-04-06T04:54:20;27.97;;;19.57;;
21089;SDS011;10703;51.020;6.128;2023-04-06T04:56:46;28.50;;;19.27;;
21089;SDS011;10703;51.020;6.128;2023-04-06T04:59:13;29.07;;;19.37;;
21089;SDS011;10703;51.020;6.128;2023-04-06T05:01:40;26.67;;;18.30;;
21089;SDS011;10703;51.020;6.128;2023-04-06T05:04:20;27.27;;;18.40;;
21089;SDS011;10703;51.020;6.128;2023-04-06T05:06:46;29.20;;;18.80;;
21089;SDS011;10703;51.020;6.128;2023-04-06T05:09:13;26.33;;;18.93;;
21089;SDS011;10703;51.020;6.128;2023-04-06T05:11:40;27.83;;;19.47;;
21089;SDS011;10703;51.020;6.128;2023-04-06T05:14:07;27.97;;;17.97;;
21089;SDS011;10703;51.020;6.128;2023-04-06T05:16:33;23.17;;;18.43;;
21089;SDS011;10703;51.020;6.128;2023-04-06T05:19:01;24.60;;;17.40;;
21089;SDS011;10703;51.020;6.128;2023-04-06T05:21:27;24.10;;;18.47;;
21089;SDS011;10703;51.020;6.128;2023-04-06T05:23:54;22.97;;;17.67;;
21089;SDS011;10703;51.020;6.128;2023-04-06T05:26:20;24.90;;;18.33;;
21089;SDS011;10703;51.020;6.128;2023-04-06T05:28:47;25.17;;;17.30;;
21089;SDS011;10703;51.020;6.128;2023-04-06T05:31:14;27.47;;;18.57;;
21089;SDS011;10703;51.020;6.128;2023-04-06T05:33:42;25.63;;;18.30;;
21089;SDS011;10703;51.020;6.128;2023-04-06T05:36:09;27.70;;;18.20;;
21089;SDS011;10703;51.020;6.128;2023-04-06T05:38:38;25.30;;;18.17;;
21089;SDS011;10703;51.020;6.128;2023-04-06T05:41:05;23.87;;;18.37;;
21089;SDS011;10703;51.020;6.128;2023-04-06T05:43:32;28.37;;;18.53;;
21089;SDS011;10703;51.020;6.128;2023-04-06T05:45:58;30.53;;;18.77;;
21089;SDS011;10703;51.020;6.128;2023-04-06T05:48:25;28.90;;;18.00;;
21089;SDS011;10703;51.020;6.128;2023-04-06T05:50:52;24.30;;;17.10;;
21089;SDS011;10703;51.020;6.128;2023-04-06T05:53:19;26.07;;;18.27;;
21089;SDS011;10703;51.020;6.128;2023-04-06T05:55:47;32.60;;;18.43;;
21089;SDS011;10703;51.020;6.128;2023-04-06T05:58:13;25.20;;;17.63;;
21089;SDS011;10703;51.020;6.128;2023-04-06T06:00:40;25.70;;;17.13;;
21089;SDS011;10703;51.020;6.128;2023-04-06T06:03:08;23.50;;;17.77;;
21089;SDS011;10703;51.020;6.128;2023-04-06T06:05:36;30.90;;;17.50;;
21089;SDS011;10703;51.020;6.128;2023-04-06T06:08:02;30.93;;;17.97;;
21089;SDS011;10703;51.020;6.128;2023-04-06T06:10:29;31.27;;;17.57;;
21089;SDS011;10703;51.020;6.128;2023-04-06T06:12:56;23.13;;;17.47;;
21089;SDS011;10703;51.020;6.128;2023-04-06T06:15:23;25.50;;;17.90;;
21089;SDS011;10703;51.020;6.128;2023-04-06T06:17:49;27.53;;;16.60;;
21089;SDS011;10703;51.020;6.128;2023-04-06T06:20:16;28.00;;;18.67;;
21089;SDS011;10703;51.020;6.128;2023-04-06T06:22:43;23.93;;;17.57;;
21089;SDS011;10703;51.020;6.128;2023-04-06T06:25:09;30.63;;;18.03;;
21089;SDS011;10703;51.020;6.128;2023-04-06T06:27:36;25.63;;;16.63;;
21089;SDS011;10703;51.020;6.128;2023-04-06T06:30:03;26.90;;;16.53;;
21089;SDS011;10703;51.020;6.128;2023-04-06T06:32:30;23.77;;;16.27;;
21089;SDS011;10703;51.020;6.128;2023-04-06T06:34:56;30.83;;;16.97;;
21089;SDS011;10703;51.020;6.128;2023-04-06T06:37:23;21.97;;;15.77;;
21089;SDS011;10703;51.020;6.128;2023-04-06T06:39:49;26.20;;;16.97;;
21089;SDS011;10703;51.020;6.128;2023-04-06T06:42:16;24.57;;;15.70;;
21089;SDS011;10703;51.020;6.128;2023-04-06T06:44:43;20.67;;;15.97;;
21089;SDS011;10703;51.020;6.128;2023-04-06T06:47:09;36.13;;;16.83;;
21089;SDS011;10703;51.020;6.128;2023-04-06T06:49:36;26.23;;;16.30;;
21089;SDS011;10703;51.020;6.128;2023-04-06T06:52:03;24.83;;;15.83;;
21089;SDS011;10703;51.020;6.128;2023-04-06T06:54:29;24.00;;;15.87;;
21089;SDS011;10703;51.020;6.128;2023-04-06T06:56:56;28.57;;;16.87;;
21089;SDS011;10703;51.020;6.128;2023-04-06T06:59:22;33.00;;;16.37;;
21089;SDS011;10703;51.020;6.128;2023-04-06T07:01:50;29.90;;;16.27;;
21089;SDS011;10703;51.020;6.128;2023-04-06T07:04:16;22.83;;;15.67;;
21089;SDS011;10703;51.020;6.128;2023-04-06T07:06:43;31.73;;;16.60;;
21089;SDS011;10703;51.020;6.128;2023-04-06T07:09:09;23.47;;;16.37;;
21089;SDS011;10703;51.020;6.128;2023-04-06T07:11:36;25.77;;;17.53;;
21089;SDS011;10703;51.020;6.128;2023-04-06T07:14:03;23.83;;;15.43;;
21089;SDS011;10703;51.020;6.128;2023-04-06T07:16:29;21.03;;;15.63;;
21089;SDS011;10703;51.020;6.128;2023-04-06T07:18:56;27.30;;;16.67;;
21089;SDS011;10703;51.020;6.128;2023-04-06T07:21:23;37.77;;;16.60;;
21089;SDS011;10703;51.020;6.128;2023-04-06T07:23:49;32.37;;;16.47;;
21089;SDS011;10703;51.020;6.128;2023-04-06T07:26:16;21.93;;;16.07;;
21089;SDS011;10703;51.020;6.128;2023-04-06T07:28:43;28.73;;;16.30;;
21089;SDS011;10703;51.020;6.128;2023-04-06T07:31:10;28.50;;;16.17;;
21089;SDS011;10703;51.020;6.128;2023-04-06T07:33:36;26.57;;;15.90;;
21089;SDS011;10703;51.020;6.128;2023-04-06T07:36:03;25.20;;;15.67;;
21089;SDS011;10703;51.020;6.128;2023-04-06T07:38:30;28.60;;;15.17;;
21089;SDS011;10703;51.020;6.128;2023-04-06T07:40:57;29.37;;;15.00;;
21089;SDS011;10703;51.020;6.128;2023-04-06T07:43:23;23.90;;;15.83;;
21089;SDS011;10703;51.020;6.128;2023-04-06T07:45:50;23.20;;;15.63;;
21089;SDS011;10703;51.020;6.128;2023-04-06T07:48:17;25.80;;;14.83;;
21089;SDS011;10703;51.020;6.128;2023-04-06T07:50:43;22.20;;;15.20;;
21089;SDS011;10703;51.020;6.128;2023-04-06T07:53:10;24.37;;;15.43;;
21089;SDS011;10703;51.020;6.128;2023-04-06T07:55:37;24.30;;;15.43;;
21089;SDS011;10703;51.020;6.128;2023-04-06T07:58:03;18.80;;;14.63;;
21089;SDS011;10703;51.020;6.128;2023-04-06T08:00:30;30.73;;;15.50;;
21089;SDS011;10703;51.020;6.128;2023-04-06T08:02:57;23.30;;;15.67;;
21089;SDS011;10703;51.020;6.128;2023-04-06T08:05:24;29.77;;;16.30;;
21089;SDS011;10703;51.020;6.128;2023-04-06T08:07:50;30.23;;;15.30;;
21089;SDS011;10703;51.020;6.128;2023-04-06T08:10:17;22.50;;;15.53;;
21089;SDS011;10703;51.020;6.128;2023-04-06T08:12:44;27.40;;;15.33;;
21089;SDS011;10703;51.020;6.128;2023-04-06T08:15:11;22.77;;;15.27;;
21089;SDS011;10703;51.020;6.128;2023-04-06T08:17:37;25.40;;;14.53;;
21089;SDS011;10703;51.020;6.128;2023-04-06T08:20:04;23.67;;;14.43;;
21089;SDS011;10703;51.020;6.128;2023-04-06T08:22:31;20.20;;;14.80;;
21089;SDS011;10703;51.020;6.128;2023-04-06T08:24:57;21.33;;;14.13;;
21089;SDS011;10703;51.020;6.128;2023-04-06T08:27:24;22.53;;;14.10;;
21089;SDS011;10703;51.020;6.128;2023-04-06T08:29:51;23.40;;;15.30;;
21089;SDS011;10703;51.020;6.128;2023-04-06T08:32:17;21.23;;;14.47;;
21089;SDS011;10703;51.020;6.128;2023-04-06T08:34:44;28.07;;;13.80;;
21089;SDS011;10703;51.020;6.128;2023-04-06T08:37:11;23.97;;;13.87;;
21089;SDS011;10703;51.020;6.128;2023-04-06T08:39:37;20.43;;;14.93;;
21089;SDS011;10703;51.020;6.128;2023-04-06T08:42:04;26.13;;;14.53;;
21089;SDS011;10703;51.020;6.128;2023-04-06T08:44:42;19.33;;;14.63;;
21089;SDS011;10703;51.020;6.128;2023-04-06T08:47:10;20.00;;;14.10;;
21089;SDS011;10703;51.020;6.128;2023-04-06T08:49:37;20.97;;;14.60;;
21089;SDS011;10703;51.020;6.128;2023-04-06T08:52:07;26.73;;;14.10;;
21089;SDS011;10703;51.020;6.128;2023-04-06T08:54:36;24.53;;;14.37;;
21089;SDS011;10703;51.020;6.128;2023-04-06T08:57:04;25.63;;;14.87;;
21089;SDS011;10703;51.020;6.128;2023-04-06T08:59:31;25.20;;;14.60;;
21089;SDS011;10703;51.020;6.128;2023-04-06T09:02:01;18.43;;;13.33;;
21089;SDS011;10703;51.020;6.128;2023-04-06T09:04:34;21.00;;;14.03;;
21089;SDS011;10703;51.020;6.128;2023-04-06T09:07:02;25.10;;;14.33;;
21089;SDS011;10703;51.020;6.128;2023-04-06T09:09:29;20.80;;;13.73;;
21089;SDS011;10703;51.020;6.128;2023-04-06T09:11:55;19.37;;;13.37;;
21089;SDS011;10703;51.020;6.128;2023-04-06T09:14:37;19.87;;;12.70;;
21089;SDS011;10703;51.020;6.128;2023-04-06T09:17:04;17.33;;;12.30;;
21089;SDS011;10703;51.020;6.128;2023-04-06T09:19:32;16.23;;;12.70;;
21089;SDS011;10703;51.020;6.128;2023-04-06T09:22:05;18.60;;;12.60;;
21089;SDS011;10703;51.020;6.128;2023-04-06T09:24:39;18.30;;;13.33;;
21089;SDS011;10703;51.020;6.128;2023-04-06T09:27:33;19.30;;;13.13;;
21089;SDS011;10703;51.020;6.128;2023-04-06T09:32:32;21.63;;;12.83;;
21089;SDS011;10703;51.020;6.128;2023-04-06T09:35:09;20.37;;;12.20;;
21089;SDS011;10703;51.020;6.128;2023-04-06T09:37:36;20.27;;;13.27;;
21089;SDS011;10703;51.020;6.128;2023-04-06T09:40:05;17.87;;;12.20;;
21089;SDS011;10703;51.020;6.128;2023-04-06T09:42:33;18.07;;;11.60;;
21089;SDS011;10703;51.020;6.128;2023-04-06T09:45:01;19.90;;;13.07;;
21089;SDS011;10703;51.020;6.128;2023-04-06T09:47:30;22.80;;;14.13;;
21089;SDS011;10703;51.020;6.128;2023-04-06T09:49:57;18.00;;;12.50;;
21089;SDS011;10703;51.020;6.128;2023-04-06T09:52:26;20.80;;;13.33;;
21089;SDS011;10703;51.020;6.128;2023-04-06T09:54:59;17.30;;;12.30;;
21089;SDS011;10703;51.020;6.128;2023-04-06T09:57:35;20.37;;;13.50;;
21089;SDS011;10703;51.020;6.128;2023-04-06T10:00:19;21.63;;;14.30;;
21089;SDS011;10703;51.020;6.128;2023-04-06T10:05:42;22.53;;;15.63;;
21089;SDS011;10703;51.020;6.128;2023-04-06T10:08:13;24.77;;;14.43;;
21089;SDS011;10703;51.020;6.128;2023-04-06T10:10:41;20.17;;;13.00;;
21089;SDS011;10703;51.020;6.128;2023-04-06T10:13:09;18.50;;;13.23;;
21089;SDS011;10703;51.020;6.128;2023-04-06T10:15:40;19.40;;;13.97;;
21089;SDS011;10703;51.020;6.128;2023-04-06T10:18:08;16.60;;;12.10;;
21089;SDS011;10703;51.020;6.128;2023-04-06T10:20:36;18.93;;;13.23;;
21089;SDS011;10703;51.020;6.128;2023-04-06T10:23:13;18.03;;;12.27;;
21089;SDS011;10703;51.020;6.128;2023-04-06T10:25:57;16.97;;;12.67;;
21089;SDS011;10703;51.020;6.128;2023-04-06T10:28:24;17.37;;;12.17;;
21089;SDS011;10703;51.020;6.128;2023-04-06T10:30:58;15.87;;;10.63;;
21089;SDS011;10703;51.020;6.128;2023-04-06T10:33:26;14.53;;;10.93;;
21089;SDS011;10703;51.020;6.128;2023-04-06T10:35:53;14.03;;;10.23;;
21089;SDS011;10703;51.020;6.128;2023-04-06T10:38:33;14.20;;;9.87;;
21089;SDS011;10703;51.020;6.128;2023-04-06T10:41:06;14.70;;;9.63;;
21089;SDS011;10703;51.020;6.128;2023-04-06T10:43:34;14.77;;;9.93;;
21089;SDS011;10703;51.020;6.128;2023-04-06T10:46:05;16.37;;;9.90;;
21089;SDS011;10703;51.020;6.128;2023-04-06T10:48:40;13.67;;;10.10;;
21089;SDS011;10703;51.020;6.128;2023-04-06T10:51:11;15.63;;;11.20;;
21089;SDS011;10703;51.020;6.128;2023-04-06T10:53:42;14.20;;;11.13;;
21089;SDS011;10703;51.020;6.128;2023-04-06T10:56:11;15.83;;;11.23;;
21089;SDS011;10703;51.020;6.128;2023-04-06T10:58:49;15.33;;;11.00;;
21089;SDS011;10703;51.020;6.128;2023-04-06T11:01:18;13.87;;;11.20;;
21089;SDS011;10703;51.020;6.128;2023-04-06T11:03:46;16.23;;;11.50;;
21089;SDS011;10703;51.020;6.128;2023-04-06T11:06:21;18.07;;;11.33;;
21089;SDS011;10703;51.020;6.128;2023-04-06T11:08:53;11.33;;;9.00;;
21089;SDS011;10703;51.020;6.128;2023-04-06T11:11:21;17.93;;;12.30;;
21089;SDS011;10703;51.020;6.128;2023-04-06T11:18:54;12.63;;;9.37;;
21089;SDS011;10703;51.020;6.128;2023-04-06T11:24:06;11.33;;;9.30;;
21089;SDS011;10703;51.020;6.128;2023-04-06T11:29:19;10.87;;;8.60;;
21089;SDS011;10703;51.020;6.128;2023-04-06T11:34:19;11.63;;;7.73;;
21089;SDS011;10703;51.020;6.128;2023-04-06T11:36:47;10.90;;;9.03;;
21089;SDS011;10703;51.020;6.128;2023-04-06T11:39:19;9.90;;;8.73;;
21089;SDS011;10703;51.020;6.128;2023-04-06T11:41:47;11.73;;;9.37;;
21089;SDS011;10703;51.020;6.128;2023-04-06T11:44:15;12.27;;;6.93;;
21089;SDS011;10703;51.020;6.128;2023-04-06T11:46:53;10.87;;;8.70;;
21089;SDS011;10703;51.020;6.128;2023-04-06T11:49:20;9.97;;;8.40;;
21089;SDS011;10703;51.020;6.128;2023-04-06T11:51:46;10.00;;;8.90;;
21089;SDS011;10703;51.020;6.128;2023-04-06T11:54:13;10.67;;;9.00;;
21089;SDS011;10703;51.020;6.128;2023-04-06T11:56:40;14.23;;;10.47;;
21089;SDS011;10703;51.020;6.128;2023-04-06T11:59:06;11.33;;;9.67;;
21089;SDS011;10703;51.020;6.128;2023-04-06T12:01:33;14.47;;;10.47;;
21089;SDS011;10703;51.020;6.128;2023-04-06T12:04:04;15.20;;;9.20;;
21089;SDS011;10703;51.020;6.128;2023-04-06T12:06:31;15.10;;;11.37;;
21089;SDS011;10703;51.020;6.128;2023-04-06T12:08:57;13.57;;;10.40;;
21089;SDS011;10703;51.020;6.128;2023-04-06T12:11:24;15.23;;;11.93;;
21089;SDS011;10703;51.020;6.128;2023-04-06T12:13:51;15.87;;;12.23;;
21089;SDS011;10703;51.020;6.128;2023-04-06T12:16:17;14.43;;;11.43;;
21089;SDS011;10703;51.020;6.128;2023-04-06T12:18:45;14.83;;;12.03;;
21089;SDS011;10703;51.020;6.128;2023-04-06T12:21:12;16.83;;;11.93;;
21089;SDS011;10703;51.020;6.128;2023-04-06T12:23:38;15.30;;;12.67;;
21089;SDS011;10703;51.020;6.128;2023-04-06T12:26:05;17.57;;;12.97;;
21089;SDS011;10703;51.020;6.128;2023-04-06T12:28:38;15.87;;;12.90;;
21089;SDS011;10703;51.020;6.128;2023-04-06T12:31:05;17.43;;;13.57;;
21089;SDS011;10703;51.020;6.128;2023-04-06T12:33:32;17.80;;;13.37;;
21089;SDS011;10703;51.020;6.128;2023-04-06T12:35:58;18.23;;;12.30;;
21089;SDS011;10703;51.020;6.128;2023-04-06T12:38:25;20.13;;;14.03;;
21089;SDS011;10703;51.020;6.128;2023-04-06T12:40:52;18.00;;;12.43;;
21089;SDS011;10703;51.020;6.128;2023-04-06T12:43:18;18.63;;;14.13;;
21089;SDS011;10703;51.020;6.128;2023-04-06T12:45:45;17.53;;;12.93;;
21089;SDS011;10703;51.020;6.128;2023-04-06T12:48:12;14.30;;;12.30;;
21089;SDS011;10703;51.020;6.128;2023-04-06T12:50:38;15.30;;;11.77;;
21089;SDS011;10703;51.020;6.128;2023-04-06T12:53:05;14.53;;;10.97;;
21089;SDS011;10703;51.020;6.128;2023-04-06T12:55:31;14.30;;;10.40;;
21089;SDS011;10703;51.020;6.128;2023-04-06T12:58:00;15.20;;;12.77;;
21089;SDS011;10703;51.020;6.128;2023-04-06T13:00:27;14.80;;;10.83;;
21089;SDS011;10703;51.020;6.128;2023-04-06T13:02:53;17.03;;;13.00;;
21089;SDS011;10703;51.020;6.128;2023-04-06T13:05:20;15.97;;;12.00;;
21089;SDS011;10703;51.020;6.128;2023-04-06T13:07:47;15.33;;;9.70;;
21089;SDS011;10703;51.020;6.128;2023-04-06T13:10:13;17.27;;;12.23;;
21089;SDS011;10703;51.020;6.128;2023-04-06T13:12:40;15.23;;;12.60;;
21089;SDS011;10703;51.020;6.128;2023-04-06T13:15:06;22.13;;;11.90;;
21089;SDS011;10703;51.020;6.128;2023-04-06T13:17:33;16.27;;;10.73;;
21089;SDS011;10703;51.020;6.128;2023-04-06T13:20:00;12.30;;;10.20;;
21089;SDS011;10703;51.020;6.128;2023-04-06T13:22:26;14.13;;;10.93;;
21089;SDS011;10703;51.020;6.128;2023-04-06T13:24:53;9.67;;;8.67;;
21089;SDS011;10703;51.020;6.128;2023-04-06T13:27:20;13.00;;;10.23;;
21089;SDS011;10703;51.020;6.128;2023-04-06T13:29:47;9.07;;;8.17;;
21089;SDS011;10703;51.020;6.128;2023-04-06T13:32:14;10.30;;;7.77;;
21089;SDS011;10703;51.020;6.128;2023-04-06T13:34:40;14.77;;;10.80;;
21089;SDS011;10703;51.020;6.128;2023-04-06T13:37:11;11.30;;;8.13;;
21089;SDS011;10703;51.020;6.128;2023-04-06T13:39:39;12.93;;;10.27;;
21089;SDS011;10703;51.020;6.128;2023-04-06T13:42:06;10.87;;;8.97;;
21089;SDS011;10703;51.020;6.128;2023-04-06T13:44:32;14.23;;;11.77;;
21089;SDS011;10703;51.020;6.128;2023-04-06T13:46:59;12.40;;;9.53;;
21089;SDS011;10703;51.020;6.128;2023-04-06T13:49:26;15.40;;;11.57;;
21089;SDS011;10703;51.020;6.128;2023-04-06T13:51:52;14.80;;;10.70;;
21089;SDS011;10703;51.020;6.128;2023-04-06T13:54:19;9.67;;;8.37;;
21089;SDS011;10703;51.020;6.128;2023-04-06T13:56:46;14.40;;;9.97;;
21089;SDS011;10703;51.020;6.128;2023-04-06T13:59:12;13.90;;;11.03;;
21089;SDS011;10703;51.020;6.128;2023-04-06T14:01:39;24.43;;;18.87;;
21089;SDS011;10703;51.020;6.128;2023-04-06T14:04:05;10.37;;;9.40;;
21089;SDS011;10703;51.020;6.128;2023-04-06T14:06:32;8.63;;;7.83;;
21089;SDS011;10703;51.020;6.128;2023-04-06T14:08:59;9.33;;;8.40;;
21089;SDS011;10703;51.020;6.128;2023-04-06T14:11:25;8.83;;;7.97;;
21089;SDS011;10703;51.020;6.128;2023-04-06T14:13:52;8.93;;;8.10;;
21089;SDS011;10703;51.020;6.128;2023-04-06T14:16:23;11.53;;;8.43;;
21089;SDS011;10703;51.020;6.128;2023-04-06T14:18:50;10.53;;;9.07;;
21089;SDS011;10703;51.020;6.128;2023-04-06T14:21:17;10.53;;;8.10;;
21089;SDS011;10703;51.020;6.128;2023-04-06T14:23:44;7.57;;;6.73;;
21089;SDS011;10703;51.020;6.128;2023-04-06T14:26:12;9.07;;;7.57;;
21089;SDS011;10703;51.020;6.128;2023-04-06T14:28:38;7.63;;;7.03;;
21089;SDS011;10703;51.020;6.128;2023-04-06T14:31:12;7.70;;;7.03;;
21089;SDS011;10703;51.020;6.128;2023-04-06T14:33:41;8.87;;;8.03;;
21089;SDS011;10703;51.020;6.128;2023-04-06T14:36:09;10.87;;;9.83;;
21089;SDS011;10703;51.020;6.128;2023-04-06T14:38:36;11.43;;;9.43;;
21089;SDS011;10703;51.020;6.128;2023-04-06T14:41:03;13.57;;;10.80;;
21089;SDS011;10703;51.020;6.128;2023-04-06T14:43:29;14.77;;;11.97;;